createdAt,value
2023-01-26T00:01:23.248Z,126.75
2023-01-26T00:03:50.822Z,123.38
2023-01-26T00:06:21.038Z,124.13
2023-01-26T00:08:51.518Z,126.65
2023-01-26T00:11:29.535Z,126.10
2023-01-26T00:13:59.218Z,122.28
2023-01-26T00:16:27.823Z,119.95
2023-01-26T00:18:54.775Z,116.85
2023-01-26T00:21:24.022Z,115.78
2023-01-26T00:23:52.531Z,118.15
2023-01-26T00:26:28.454Z,110.22
2023-01-26T00:28:55.585Z,106.72
2023-01-26T00:31:26.664Z,110.55
2023-01-26T00:33:55.726Z,102.47
2023-01-26T00:36:22.958Z,96.93
2023-01-26T00:38:49.975Z,97.80
2023-01-26T00:41:35.469Z,84.97
2023-01-26T00:44:02.637Z,90.05
2023-01-26T00:46:29.986Z,86.20
2023-01-26T00:48:57.546Z,84.60
2023-01-26T00:51:24.411Z,80.90
2023-01-26T00:53:51.258Z,80.80
2023-01-26T00:56:19.329Z,75.05
2023-01-26T00:58:46.719Z,82.63
2023-01-26T01:01:13.674Z,78.85
2023-01-26T01:03:42.767Z,82.43
2023-01-26T01:06:09.872Z,79.90
2023-01-26T01:08:36.698Z,76.18
2023-01-26T01:11:10.129Z,76.05
2023-01-26T01:13:38.131Z,75.85
2023-01-26T01:16:07.651Z,71.78
2023-01-26T01:18:35.717Z,82.10
2023-01-26T01:21:15.122Z,80.70
2023-01-26T01:23:43.445Z,79.57
2023-01-26T01:26:11.554Z,81.18
2023-01-26T01:28:38.858Z,85.10
2023-01-26T01:31:08.292Z,86.93
2023-01-26T01:33:36.271Z,84.22
2023-01-26T01:36:11.238Z,90.90
2023-01-26T01:38:38.086Z,84.05
2023-01-26T01:41:05.852Z,89.40
2023-01-26T01:43:33.128Z,82.95
2023-01-26T01:46:38.741Z,84.80
2023-01-26T01:49:26.272Z,78.15
2023-01-26T01:51:59.505Z,80.32
2023-01-26T01:54:45.908Z,75.28
2023-01-26T01:57:27.758Z,74.72
2023-01-26T02:00:05.960Z,74.38
2023-01-26T02:02:43.578Z,72.75
2023-01-26T02:05:25.933Z,70.97
2023-01-26T02:07:54.456Z,75.15
2023-01-26T02:10:22.054Z,69.25
2023-01-26T02:12:56.668Z,76.38
2023-01-26T02:15:23.912Z,75.50
2023-01-26T02:17:55.079Z,69.65
2023-01-26T02:20:28.497Z,71.25
2023-01-26T02:23:42.658Z,69.95
2023-01-26T02:26:25.169Z,73.35
2023-01-26T02:28:53.588Z,69.70
2023-01-26T02:31:22.876Z,75.47
2023-01-26T02:33:50.262Z,70.07
2023-01-26T02:36:26.943Z,65.22
2023-01-26T02:39:18.345Z,70.05
2023-01-26T02:42:06.019Z,73.85
2023-01-26T02:44:33.306Z,65.82
2023-01-26T02:47:00.289Z,68.13
2023-01-26T02:49:46.218Z,66.75
2023-01-26T02:52:17.152Z,66.55
2023-01-26T02:55:04.751Z,69.93
2023-01-26T02:57:34.321Z,71.47
2023-01-26T03:00:02.291Z,69.60
2023-01-26T03:02:31.130Z,64.38
2023-01-26T03:04:58.002Z,64.82
2023-01-26T03:07:25.368Z,68.88
2023-01-26T03:09:52.223Z,67.80
2023-01-26T03:12:19.094Z,68.50
2023-01-26T03:15:06.991Z,61.15
2023-01-26T03:17:33.814Z,66.00
2023-01-26T03:20:19.255Z,58.55
2023-01-26T03:23:04.639Z,64.35
2023-01-26T03:25:50.133Z,62.72
2023-01-26T03:28:22.309Z,64.43
2023-01-26T03:30:55.098Z,66.00
2023-01-26T03:33:22.201Z,62.00
2023-01-26T03:35:53.542Z,64.32
2023-01-26T03:38:22.018Z,63.58
2023-01-26T03:41:10.587Z,62.20
2023-01-26T03:43:56.043Z,62.67
2023-01-26T03:46:41.696Z,55.95
2023-01-26T03:49:30.076Z,55.08
2023-01-26T03:52:15.469Z,55.42
2023-01-26T03:55:00.912Z,60.78
2023-01-26T03:57:29.813Z,57.05
2023-01-26T03:59:56.695Z,55.72
2023-01-26T04:02:45.057Z,56.80
2023-01-26T04:05:30.416Z,57.75
2023-01-26T04:08:26.947Z,58.28
2023-01-26T04:10:59.180Z,55.45
2023-01-26T04:13:44.708Z,57.65
2023-01-26T04:16:37.981Z,57.13
2023-01-26T04:19:23.366Z,53.92
2023-01-26T04:21:50.750Z,58.45
2023-01-26T04:24:22.166Z,52.33
2023-01-26T04:26:53.160Z,58.53
2023-01-26T04:29:26.938Z,57.42
2023-01-26T04:31:53.825Z,53.42
2023-01-26T04:34:22.776Z,55.10
2023-01-26T04:36:50.157Z,57.67
2023-01-26T04:39:18.289Z,57.33
2023-01-26T04:41:48.679Z,52.13
2023-01-26T04:44:16.948Z,51.58
2023-01-26T04:46:44.095Z,53.00
2023-01-26T04:49:13.326Z,47.90
2023-01-26T04:51:40.475Z,51.70
2023-01-26T04:54:07.949Z,53.25
2023-01-26T04:56:38.509Z,49.58
2023-01-26T04:59:08.127Z,53.30
2023-01-26T05:01:37.546Z,54.90
2023-01-26T05:04:07.484Z,51.63
2023-01-26T05:06:35.852Z,47.97
2023-01-26T05:09:02.709Z,47.55
2023-01-26T05:11:32.118Z,54.05
2023-01-26T05:14:22.051Z,45.05
2023-01-26T05:17:11.428Z,49.25
2023-01-26T05:20:01.228Z,50.30
2023-01-26T05:22:28.180Z,50.40
2023-01-26T05:25:13.511Z,52.67
2023-01-26T05:27:48.196Z,52.17
2023-01-26T05:30:16.507Z,54.58
2023-01-26T05:32:44.353Z,51.97
2023-01-26T05:35:11.998Z,51.15
2023-01-26T05:37:39.013Z,52.40
2023-01-26T05:40:06.476Z,50.28
2023-01-26T05:42:33.465Z,48.13
2023-01-26T05:45:08.644Z,46.70
2023-01-26T05:47:36.608Z,48.08
2023-01-26T05:50:05.331Z,48.03
2023-01-26T05:52:32.632Z,49.60
2023-01-26T05:55:00.157Z,49.30
2023-01-26T05:57:27.856Z,54.05
2023-01-26T05:59:58.973Z,52.40
2023-01-26T06:02:28.733Z,51.50
2023-01-26T06:04:55.735Z,51.78
2023-01-26T06:07:22.916Z,50.67
2023-01-26T06:10:07.745Z,49.70
2023-01-26T06:12:57.809Z,48.72
2023-01-26T06:15:43.050Z,48.72
2023-01-26T06:18:09.852Z,52.58
2023-01-26T06:20:37.184Z,51.72
2023-01-26T06:23:06.977Z,57.25
2023-01-26T06:25:35.272Z,95.82
2023-01-26T06:28:03.091Z,80.88
2023-01-26T06:30:31.872Z,58.88
2023-01-26T06:33:02.628Z,51.08
2023-01-26T06:35:30.707Z,49.17
2023-01-26T06:38:01.741Z,51.50
2023-01-26T06:40:28.759Z,48.60
2023-01-26T06:42:55.593Z,49.33
2023-01-26T06:45:22.791Z,64.28
2023-01-26T06:47:51.854Z,71.85
2023-01-26T06:50:25.056Z,64.38
2023-01-26T06:52:56.301Z,59.78
2023-01-26T06:55:49.258Z,51.60
2023-01-26T06:58:30.764Z,50.40
2023-01-26T07:01:21.381Z,48.33
2023-01-26T07:03:49.618Z,54.10
2023-01-26T07:06:17.058Z,46.38
2023-01-26T07:08:44.736Z,51.40
2023-01-26T07:11:12.918Z,49.78
2023-01-26T07:13:40.389Z,48.67
2023-01-26T07:16:18.023Z,50.50
2023-01-26T07:18:45.305Z,52.13
2023-01-26T07:21:18.264Z,54.58
2023-01-26T07:23:47.102Z,60.00
2023-01-26T07:26:14.613Z,61.22
2023-01-26T07:28:41.864Z,52.65
2023-01-26T07:31:11.358Z,49.65
2023-01-26T07:33:38.442Z,55.50
2023-01-26T07:36:05.651Z,63.92
2023-01-26T07:38:34.286Z,61.33
2023-01-26T07:41:11.440Z,61.63
2023-01-26T07:43:39.329Z,90.72
2023-01-26T07:46:10.730Z,67.55
2023-01-26T07:48:38.352Z,66.57
2023-01-26T07:51:05.952Z,60.72
2023-01-26T07:53:37.636Z,69.18
2023-01-26T07:56:13.968Z,60.00
2023-01-26T07:58:41.023Z,55.45
2023-01-26T08:01:17.029Z,54.10
2023-01-26T08:03:47.448Z,50.75
2023-01-26T08:06:15.685Z,67.28
2023-01-26T08:08:43.121Z,46.03
2023-01-26T08:11:11.793Z,49.83
2023-01-26T08:13:39.175Z,48.47
2023-01-26T08:16:12.430Z,47.30
2023-01-26T08:18:43.343Z,41.30
2023-01-26T08:21:12.333Z,50.67
2023-01-26T08:23:40.567Z,44.13
2023-01-26T08:26:12.109Z,51.42
2023-01-26T08:28:39.385Z,44.50
2023-01-26T08:31:13.596Z,46.70
2023-01-26T08:33:42.684Z,44.67
2023-01-26T08:36:13.619Z,45.00
2023-01-26T08:38:41.567Z,43.58
2023-01-26T08:41:09.415Z,38.78
2023-01-26T08:43:36.717Z,38.83
2023-01-26T08:46:03.879Z,43.13
2023-01-26T08:48:31.677Z,44.55
2023-01-26T08:51:02.732Z,44.95
2023-01-26T08:53:37.302Z,43.45
2023-01-26T08:56:07.553Z,37.17
2023-01-26T08:58:35.586Z,33.92
2023-01-26T09:01:13.067Z,33.85
2023-01-26T09:03:40.354Z,37.00
2023-01-26T09:06:09.742Z,37.47
2023-01-26T09:08:37.600Z,30.83
2023-01-26T09:11:08.023Z,27.27
2023-01-26T09:13:37.025Z,38.75
2023-01-26T09:16:06.936Z,29.13
2023-01-26T09:18:34.779Z,30.20
2023-01-26T09:21:06.707Z,31.42
2023-01-26T09:23:34.118Z,26.92
2023-01-26T09:26:01.548Z,24.63
2023-01-26T09:28:28.786Z,29.60
2023-01-26T09:30:55.745Z,28.77
2023-01-26T09:33:22.948Z,21.65
2023-01-26T09:35:50.437Z,20.65
2023-01-26T09:38:17.312Z,19.92
2023-01-26T09:41:18.127Z,19.70
2023-01-26T09:43:51.718Z,23.20
2023-01-26T09:46:25.841Z,20.77
2023-01-26T09:49:06.290Z,31.25
2023-01-26T09:51:43.934Z,20.50
2023-01-26T09:54:37.828Z,25.50
2023-01-26T09:57:41.752Z,26.88
2023-01-26T10:00:35.210Z,16.58
2023-01-26T10:03:35.864Z,16.55
2023-01-26T10:06:28.569Z,23.15
2023-01-26T10:09:29.714Z,19.80
2023-01-26T10:12:01.862Z,22.25
2023-01-26T10:14:49.944Z,19.40
2023-01-26T10:17:28.069Z,24.42
2023-01-26T10:20:06.208Z,29.48
2023-01-26T10:22:45.680Z,19.50
2023-01-26T10:25:20.850Z,21.13
2023-01-26T10:27:47.874Z,25.30
2023-01-26T10:30:17.495Z,20.83
2023-01-26T10:32:47.923Z,21.10
2023-01-26T10:35:23.864Z,16.65
2023-01-26T10:37:53.027Z,22.25
2023-01-26T10:40:21.468Z,26.70
2023-01-26T10:42:59.898Z,30.05
2023-01-26T10:45:44.470Z,22.67
2023-01-26T10:48:24.131Z,22.60
2023-01-26T10:50:51.443Z,18.40
2023-01-26T10:53:29.523Z,15.82
2023-01-26T10:56:07.266Z,18.98
2023-01-26T10:58:45.904Z,16.00
2023-01-26T11:01:18.765Z,15.60
2023-01-26T11:04:04.682Z,21.90
2023-01-26T11:06:32.319Z,12.75
2023-01-26T11:09:14.293Z,19.83
2023-01-26T11:11:41.848Z,18.63
2023-01-26T11:14:17.223Z,24.05
2023-01-26T11:17:21.418Z,16.48
2023-01-26T11:20:28.919Z,18.38
2023-01-26T11:23:15.553Z,19.73
2023-01-26T11:25:56.811Z,18.02
2023-01-26T11:28:51.501Z,22.75
2023-01-26T11:31:54.911Z,21.77
2023-01-26T11:35:03.709Z,20.08
2023-01-26T11:38:09.555Z,22.70
2023-01-26T11:41:01.824Z,19.23
2023-01-26T11:43:51.507Z,18.95
2023-01-26T11:46:52.706Z,18.85
2023-01-26T11:49:34.751Z,15.75
2023-01-26T11:52:14.921Z,15.98
2023-01-26T11:55:23.353Z,13.02
2023-01-26T11:58:21.411Z,10.18
2023-01-26T12:00:53.104Z,16.25
2023-01-26T12:03:35.230Z,16.50
2023-01-26T12:06:07.880Z,19.80
2023-01-26T12:08:56.376Z,13.52
2023-01-26T12:11:33.715Z,16.52
2023-01-26T12:14:15.599Z,15.70
2023-01-26T12:17:20.599Z,17.17
2023-01-26T12:20:25.988Z,18.40
2023-01-26T12:23:08.963Z,18.42
2023-01-26T12:25:40.971Z,15.20
2023-01-26T12:28:31.057Z,17.77
2023-01-26T12:31:35.031Z,15.55
2023-01-26T12:34:11.521Z,13.52
2023-01-26T12:37:19.336Z,18.00
2023-01-26T12:39:58.866Z,13.32
2023-01-26T12:42:58.253Z,15.30
2023-01-26T12:45:36.145Z,20.45
2023-01-26T12:48:20.344Z,17.00
2023-01-26T12:51:08.728Z,17.42
2023-01-26T12:53:53.435Z,16.27
2023-01-26T12:56:41.849Z,16.88
2023-01-26T12:59:39.411Z,14.15
2023-01-26T13:02:15.777Z,11.40
2023-01-26T13:04:47.129Z,12.90
2023-01-26T13:07:38.065Z,18.02
2023-01-26T13:10:24.407Z,12.25
2023-01-26T13:13:20.400Z,9.38
2023-01-26T13:15:47.789Z,13.57
2023-01-26T13:18:18.553Z,15.70
2023-01-26T13:20:50.060Z,10.18
2023-01-26T13:23:43.640Z,11.30
2023-01-26T13:26:25.262Z,9.80
2023-01-26T13:29:03.718Z,14.57
2023-01-26T13:31:35.052Z,12.88
2023-01-26T13:34:08.377Z,7.85
2023-01-26T13:36:42.133Z,16.58
2023-01-26T13:39:35.529Z,10.38
2023-01-26T13:42:14.054Z,15.00
2023-01-26T13:44:49.239Z,13.48
2023-01-26T13:47:28.120Z,9.32
2023-01-26T13:49:54.877Z,13.07
2023-01-26T13:52:25.587Z,10.82
2023-01-26T13:54:57.745Z,8.63
2023-01-26T13:57:31.392Z,14.68
2023-01-26T14:00:01.162Z,12.63
2023-01-26T14:02:31.399Z,11.70
2023-01-26T14:04:59.704Z,10.75
2023-01-26T14:07:44.490Z,12.15
2023-01-26T14:10:22.284Z,16.83
2023-01-26T14:12:56.555Z,12.90
2023-01-26T14:15:28.696Z,17.20
2023-01-26T14:18:03.059Z,12.18
2023-01-26T14:20:36.903Z,10.63
2023-01-26T14:23:14.590Z,13.07
2023-01-26T14:26:11.449Z,10.00
2023-01-26T14:28:43.168Z,8.60
2023-01-26T14:31:23.401Z,9.88
2023-01-26T14:33:57.755Z,12.13
2023-01-26T14:36:28.757Z,10.77
2023-01-26T14:38:56.905Z,9.77
2023-01-26T14:41:34.939Z,11.48
2023-01-26T14:44:03.979Z,11.82
2023-01-26T14:46:41.664Z,10.77
2023-01-26T14:49:16.820Z,11.70
2023-01-26T14:51:47.376Z,9.48
2023-01-26T14:54:32.208Z,13.38
2023-01-26T14:57:00.832Z,11.00
2023-01-26T14:59:40.791Z,9.48
2023-01-26T15:02:13.337Z,12.38
2023-01-26T15:04:46.281Z,8.30
2023-01-26T15:07:37.811Z,10.55
2023-01-26T15:10:32.256Z,8.25
2023-01-26T15:13:08.365Z,12.30
2023-01-26T15:15:39.999Z,9.93
2023-01-26T15:18:20.307Z,14.90
2023-01-26T15:20:49.997Z,13.63
2023-01-26T15:23:28.457Z,10.52
2023-01-26T15:26:03.581Z,7.22
2023-01-26T15:28:31.577Z,12.05
2023-01-26T15:30:58.825Z,15.48
2023-01-26T15:33:51.632Z,6.93
2023-01-26T15:36:35.065Z,11.73
2023-01-26T15:39:12.879Z,10.45
2023-01-26T15:41:41.987Z,11.88
2023-01-26T15:44:19.123Z,14.75
2023-01-26T15:46:46.559Z,9.50
2023-01-26T15:49:14.638Z,10.73
2023-01-26T15:51:41.522Z,6.43
2023-01-26T15:54:11.362Z,11.90
2023-01-26T15:56:38.359Z,9.18
2023-01-26T15:59:05.136Z,4.90
2023-01-26T16:01:32.060Z,10.73
2023-01-26T16:03:58.907Z,8.38
2023-01-26T16:06:32.113Z,8.07
2023-01-26T16:08:59.661Z,6.50
2023-01-26T16:11:39.817Z,7.63
2023-01-26T16:14:07.857Z,8.02
2023-01-26T16:16:34.727Z,10.30
2023-01-26T16:19:01.643Z,7.20
2023-01-26T16:21:33.836Z,8.00
2023-01-26T16:24:04.638Z,6.63
2023-01-26T16:26:32.193Z,11.52
2023-01-26T16:28:59.321Z,9.70
2023-01-26T16:31:31.020Z,13.05
2023-01-26T16:33:59.450Z,7.40
2023-01-26T16:36:26.621Z,6.25
2023-01-26T16:38:53.637Z,7.70
2023-01-26T16:41:29.378Z,8.90
2023-01-26T16:44:02.231Z,7.90
2023-01-26T16:46:30.668Z,7.18
2023-01-26T16:48:57.720Z,7.35
2023-01-26T16:51:29.187Z,8.85
2023-01-26T16:53:57.712Z,7.35
2023-01-26T16:56:25.468Z,9.57
2023-01-26T16:58:52.364Z,7.85
2023-01-26T17:01:23.650Z,10.05
2023-01-26T17:03:51.341Z,12.30
2023-01-26T17:06:20.604Z,13.75
2023-01-26T17:08:48.091Z,19.10
2023-01-26T17:11:22.131Z,11.60
2023-01-26T17:13:49.391Z,14.85
2023-01-26T17:16:20.205Z,14.77
2023-01-26T17:18:49.017Z,14.70
2023-01-26T17:21:19.622Z,14.98
2023-01-26T17:23:51.815Z,16.15
2023-01-26T17:26:21.609Z,11.55
2023-01-26T17:28:52.879Z,15.52
2023-01-26T17:31:21.947Z,12.10
2023-01-26T17:33:50.532Z,10.80
2023-01-26T17:36:19.725Z,8.82
2023-01-26T17:38:48.636Z,13.70
2023-01-26T17:41:17.185Z,12.32
2023-01-26T17:43:44.499Z,11.43
2023-01-26T17:46:17.682Z,9.63
2023-01-26T17:48:46.168Z,11.13
2023-01-26T17:51:17.694Z,13.85
2023-01-26T17:53:47.216Z,9.95
2023-01-26T17:56:17.235Z,11.25
2023-01-26T17:58:52.112Z,9.40
2023-01-26T18:01:23.239Z,18.48
2023-01-26T18:03:50.301Z,11.10
2023-01-26T18:06:17.604Z,12.93
2023-01-26T18:08:44.597Z,12.18
2023-01-26T18:11:14.130Z,16.45
2023-01-26T18:13:41.299Z,12.40
2023-01-26T18:16:12.573Z,11.30
2023-01-26T18:18:39.430Z,9.68
2023-01-26T18:21:26.901Z,16.00
2023-01-26T18:24:00.452Z,11.38
2023-01-26T18:26:31.538Z,11.07
2023-01-26T18:28:58.885Z,9.93
2023-01-26T18:31:29.720Z,13.85
2023-01-26T18:33:59.374Z,13.90
2023-01-26T18:36:27.260Z,11.57
2023-01-26T18:39:02.130Z,10.93
2023-01-26T18:41:33.127Z,14.02
2023-01-26T18:44:03.664Z,17.20
2023-01-26T18:46:31.259Z,13.02
2023-01-26T18:49:02.939Z,13.23
2023-01-26T18:51:38.800Z,10.60
2023-01-26T18:54:05.714Z,14.27
2023-01-26T18:56:33.549Z,15.90
2023-01-26T18:59:00.345Z,16.45
2023-01-26T19:01:27.553Z,11.68
2023-01-26T19:03:55.688Z,11.05
2023-01-26T19:06:25.448Z,10.93
2023-01-26T19:08:58.079Z,14.35
2023-01-26T19:11:28.019Z,10.43
2023-01-26T19:13:55.962Z,15.40
2023-01-26T19:16:23.421Z,16.55
2023-01-26T19:18:51.787Z,16.33
2023-01-26T19:21:24.517Z,11.25
2023-01-26T19:23:54.162Z,13.57
2023-01-26T19:26:27.873Z,12.75
2023-01-26T19:28:55.150Z,12.75
2023-01-26T19:31:22.883Z,12.60
2023-01-26T19:33:51.576Z,18.75
2023-01-26T19:36:19.135Z,15.18
2023-01-26T19:38:46.443Z,12.60
2023-01-26T19:41:14.009Z,15.82
2023-01-26T19:43:42.076Z,13.70
2023-01-26T19:46:11.609Z,15.38
2023-01-26T19:48:39.412Z,13.55
2023-01-26T19:51:14.059Z,13.18
2023-01-26T19:53:45.028Z,13.45
2023-01-26T19:56:19.713Z,11.75
2023-01-26T19:58:52.681Z,13.23
2023-01-26T20:01:21.070Z,19.30
2023-01-26T20:03:53.298Z,16.02
2023-01-26T20:06:23.442Z,15.80
2023-01-26T20:08:51.540Z,9.32
2023-01-26T20:11:19.668Z,16.33
2023-01-26T20:13:46.562Z,9.15
2023-01-26T20:16:13.878Z,13.45
2023-01-26T20:18:40.729Z,13.80
2023-01-26T20:21:07.583Z,15.98
2023-01-26T20:23:36.536Z,13.93
2023-01-26T20:26:10.867Z,12.18
2023-01-26T20:28:40.086Z,17.05
2023-01-26T20:31:17.443Z,13.30
2023-01-26T20:33:49.523Z,13.00
2023-01-26T20:36:21.581Z,15.20
2023-01-26T20:38:49.691Z,14.70
2023-01-26T20:41:27.431Z,17.67
2023-01-26T20:44:01.142Z,16.05
2023-01-26T20:46:36.431Z,13.02
2023-01-26T20:49:05.618Z,13.35
2023-01-26T20:51:35.745Z,15.07
2023-01-26T20:54:06.535Z,21.40
2023-01-26T20:56:35.368Z,16.02
2023-01-26T20:59:02.892Z,21.13
2023-01-26T21:01:30.203Z,22.30
2023-01-26T21:03:57.041Z,22.40
2023-01-26T21:06:24.576Z,15.93
2023-01-26T21:08:55.637Z,12.77
2023-01-26T21:11:26.802Z,14.30
2023-01-26T21:13:56.884Z,13.75
2023-01-26T21:16:24.865Z,16.75
2023-01-26T21:18:52.265Z,15.48
2023-01-26T21:21:21.754Z,16.55
2023-01-26T21:23:49.554Z,16.17
2023-01-26T21:26:22.902Z,13.20
2023-01-26T21:28:55.726Z,15.60
2023-01-26T21:31:26.974Z,15.52
2023-01-26T21:33:54.657Z,14.95
2023-01-26T21:36:26.062Z,15.45
2023-01-26T21:38:56.035Z,16.38
2023-01-26T21:41:50.503Z,15.60
2023-01-26T21:44:23.323Z,17.70
2023-01-26T21:46:54.336Z,10.63
2023-01-26T21:49:22.143Z,16.95
2023-01-26T21:52:08.579Z,15.43
2023-01-26T21:54:35.964Z,13.32
2023-01-26T21:57:25.158Z,13.05
2023-01-26T21:59:52.757Z,14.55
2023-01-26T22:02:20.378Z,15.07
2023-01-26T22:04:47.437Z,17.33
2023-01-26T22:07:14.389Z,17.00
2023-01-26T22:09:41.265Z,13.93
2023-01-26T22:12:08.506Z,20.35
2023-01-26T22:14:35.365Z,23.70
2023-01-26T22:17:02.226Z,13.13
2023-01-26T22:19:29.100Z,15.90
2023-01-26T22:21:56.067Z,15.77
2023-01-26T22:24:22.970Z,13.32
2023-01-26T22:26:49.832Z,16.10
2023-01-26T22:29:16.670Z,20.17
2023-01-26T22:31:43.501Z,19.65
2023-01-26T22:34:13.543Z,10.07
2023-01-26T22:36:41.250Z,23.77
2023-01-26T22:39:08.711Z,17.42
2023-01-26T22:41:37.572Z,17.42
2023-01-26T22:44:04.637Z,15.13
2023-01-26T22:46:32.264Z,16.25
2023-01-26T22:48:59.732Z,16.70
2023-01-26T22:51:30.483Z,20.65
2023-01-26T22:53:59.247Z,15.50
2023-01-26T22:56:27.587Z,10.02
2023-01-26T22:59:00.457Z,11.65
2023-01-26T23:01:33.401Z,10.65
2023-01-26T23:04:01.586Z,9.80
2023-01-26T23:06:29.156Z,12.65
2023-01-26T23:08:57.976Z,17.92
2023-01-26T23:11:28.578Z,11.32
2023-01-26T23:13:57.918Z,12.63
2023-01-26T23:16:26.192Z,11.27
2023-01-26T23:18:56.098Z,9.38
2023-01-26T23:21:24.756Z,22.38
2023-01-26T23:23:51.768Z,12.50
2023-01-26T23:26:18.904Z,11.05
2023-01-26T23:28:46.280Z,6.88
2023-01-26T23:31:16.511Z,13.35
2023-01-26T23:33:44.130Z,16.52
2023-01-26T23:36:13.381Z,16.00
2023-01-26T23:38:40.957Z,9.20
2023-01-26T23:41:10.688Z,12.50
2023-01-26T23:43:38.407Z,8.70
2023-01-26T23:46:07.101Z,12.70
2023-01-26T23:48:34.341Z,9.57
2023-01-26T23:51:12.192Z,9.00
2023-01-26T23:53:39.592Z,10.93
2023-01-26T23:56:13.661Z,9.63
2023-01-26T23:58:41.121Z,8.05
